Amistad — WCZ9672 — position and weather

sailwx.info

Track history (hours):
 
Tides and Currents Weather Stations Pressure Air Temp Water Temp Dewpoint Dewpoint Depression Visibility Wind Speed Wind Dir Waves Ship Positions

Amistad (United States)

Ship's website: http://www.amistadvoyages.org/

Owner: AMISTAD AMERICA, New Haven, CT. More information available from US FCC via Universal Licensing System and Coast Guard Vessel Documentation Center.

Last reported at 2017-Aug-18 19:37 UTC. Time now 2017-Oct-22 19:15 UTC.
Position N 41°13' W 072°15'.
Warning: this ship's position is months out of date.

Length 39 m; draft 3.4 m.

Type: Sailing vessel. MMSI: 369547000.

Date/timePositionNaut miles runAvg speedWind from/ knotsBaromVisibWave heightAir tempDewpointWater temp
2017-Aug-18 19:37N 41°13' W 072°15'3 6.2
2017-Aug-18 19:11N 41°13' W 072°19'1 6.1
2017-Aug-18 19:00N 41°13' W 072°20'3 5.6
2017-Aug-18 18:30N 41°12' W 072°24'3 5.5
2017-Aug-18 18:00N 41°11' W 072°27'3 5.4
2017-Aug-18 17:30N 41°14' W 072°28'2 3.6
2017-Aug-18 17:00N 41°15' W 072°29'1 1.3
2017-Aug-18 16:30N 41°16' W 072°29'0 0.0
2017-Aug-18 16:00N 41°16' W 072°29'0 0.0
2017-Aug-18 15:30N 41°16' W 072°29'0 0.0
2017-Aug-18 15:00N 41°16' W 072°29'0 0.0
2017-Aug-18 14:30N 41°16' W 072°29'0 0.0
2017-Aug-18 13:30N 41°16' W 072°29'0 0.0
2017-Aug-18 13:00N 41°16' W 072°29'0 0.0
2017-Aug-18 12:30N 41°16' W 072°29'0 0.0
2017-Aug-18 12:00N 41°16' W 072°29'0 0.1
2017-Aug-18 11:30N 41°16' W 072°29'0 0.0
2017-Aug-18 11:00N 41°16' W 072°29'0 0.0
2017-Aug-18 10:30N 41°16' W 072°29'0 0.0
2017-Aug-18 10:00N 41°16' W 072°29'0 0.0
2017-Aug-18 09:30N 41°16' W 072°29'0 0.0
2017-Aug-18 09:00N 41°16' W 072°29'0 0.0
2017-Aug-18 08:30N 41°16' W 072°29'0 0.0
2017-Aug-18 08:00N 41°16' W 072°29'0 0.0
2017-Aug-18 07:30N 41°16' W 072°29'0 0.0
2017-Aug-18 07:00N 41°16' W 072°29'0 0.0
2017-Aug-18 06:30N 41°16' W 072°29'0 0.0
2017-Aug-18 06:00N 41°16' W 072°29'0 0.1
2017-Aug-18 05:30N 41°16' W 072°29'0 0.0
2017-Aug-18 05:00N 41°16' W 072°29'0 0.0
2017-Aug-18 04:30N 41°16' W 072°29'0 0.0
2017-Aug-18 04:00N 41°16' W 072°29'0 0.0
2017-Aug-18 03:30N 41°16' W 072°29'0 0.0
2017-Aug-18 03:00N 41°16' W 072°29'0 0.0
2017-Aug-18 02:30N 41°16' W 072°29'0 0.0
2017-Aug-18 02:00N 41°16' W 072°29'0 0.0
2017-Aug-18 01:30N 41°16' W 072°29'0 0.0
2017-Aug-18 01:00N 41°16' W 072°29'0 0.0
2017-Aug-18 00:30N 41°16' W 072°29'0 0.0
2017-Aug-18 00:00N 41°16' W 072°29'0 0.0
2017-Aug-17 23:30N 41°16' W 072°29'0 0.0
2017-Aug-17 23:00N 41°16' W 072°29'0 0.0
2017-Aug-17 22:30N 41°16' W 072°29'0 0.0
2017-Aug-17 22:00N 41°16' W 072°29'2 3.4
2017-Aug-17 21:30N 41°14' W 072°30'3 6.2
2017-Aug-17 21:00N 41°13' W 072°34'3 6.7
2017-Aug-17 20:30N 41°12' W 072°38'4 7.4
2017-Aug-17 19:57N 41°10' W 072°43'54 1.0
2017-Aug-15 16:40N 40°48' W 073°48'0 0.0
2017-Aug-15 16:14N 40°48' W 073°48'0 0.0
2017-Aug-15 15:45N 40°48' W 073°48'0 0.0
2017-Aug-15 15:29N 40°48' W 073°48'0 0.4
2017-Aug-15 14:56N 40°48' W 073°48'3 7.3
2017-Aug-15 14:30N 40°48' W 073°53'3 6.4
2017-Aug-15 14:01N 40°47' W 073°56'3 5.8
2017-Aug-15 13:30N 40°44' W 073°58'2 4.8
2017-Aug-15 13:01N 40°42' W 074°00'3 6.1
2017-Aug-15 12:30N 40°45' W 074°01'2 4.6
2017-Aug-15 12:00N 40°47' W 073°59'0 0.0
2017-Aug-15 11:30N 40°47' W 073°59'0 0.0
2017-Aug-15 11:01N 40°47' W 073°59'0 0.0
2017-Aug-15 10:30N 40°47' W 073°59'0 0.0
2017-Aug-15 10:00N 40°47' W 073°59'0 0.0
2017-Aug-15 09:30N 40°47' W 073°59'0 0.0
2017-Aug-15 09:00N 40°47' W 073°59'0 0.0
2017-Aug-15 08:30N 40°47' W 073°59'0 0.0
2017-Aug-15 08:00N 40°47' W 073°59'0 0.0
2017-Aug-15 07:30N 40°47' W 073°59'0 0.0
2017-Aug-15 07:00N 40°47' W 073°59'0 0.0
2017-Aug-15 06:30N 40°47' W 073°59'0 0.0
2017-Aug-15 06:00N 40°47' W 073°59'0 0.0
2017-Aug-15 05:30N 40°47' W 073°59'0 0.0
2017-Aug-15 05:00N 40°47' W 073°59'0 0.0
2017-Aug-15 04:30N 40°47' W 073°59'0 0.0
2017-Aug-15 04:00N 40°47' W 073°59'0 0.0
2017-Aug-15 03:30N 40°47' W 073°59'0 0.0
2017-Aug-15 03:00N 40°47' W 073°59'0 0.0
2017-Aug-15 02:31N 40°47' W 073°59'0 0.0
2017-Aug-15 02:00N 40°47' W 073°59'0 0.0
2017-Aug-15 01:30N 40°47' W 073°59'0 0.0
2017-Aug-15 01:01N 40°47' W 073°59'0 0.0
2017-Aug-15 00:30N 40°47' W 073°59'0 0.0
2017-Aug-15 00:00N 40°47' W 073°59'0 0.0
2017-Aug-14 23:30N 40°47' W 073°59'0 0.0
2017-Aug-14 23:00N 40°47' W 073°59'0 0.0
2017-Aug-14 22:30N 40°47' W 073°59'0 0.0
2017-Aug-14 22:00N 40°47' W 073°59'0 0.0
2017-Aug-14 21:30N 40°47' W 073°59'0 0.0
2017-Aug-14 21:00N 40°47' W 073°59'0 0.0
2017-Aug-14 20:30N 40°47' W 073°59'0 0.0
2017-Aug-14 20:00N 40°47' W 073°59'0 0.0
2017-Aug-14 19:30N 40°47' W 073°59'0 0.0
2017-Aug-14 18:59N 40°47' W 073°59'0 0.0
2017-Aug-14 18:30N 40°47' W 073°59'1 2.1
2017-Aug-14 18:00N 40°46' W 074°00'4 8.0
2017-Aug-14 17:30N 40°43' W 074°02'0 0.9
2017-Aug-14 17:00N 40°43' W 074°02'0 0.0
2017-Aug-14 16:30N 40°43' W 074°02'1 1.1
2017-Aug-14 16:01N 40°43' W 074°02'0 0.2
2017-Aug-14 15:30N 40°43' W 074°02'0 0.4
2017-Aug-14 15:01N 40°42' W 074°02'1 2.1
2017-Aug-14 14:30N 40°42' W 074°02'0 0.1
2017-Aug-14 14:01N 40°42' W 074°02'0 0.0
2017-Aug-14 13:31N 40°42' W 074°02'0 0.0
2017-Aug-14 13:01N 40°42' W 074°02'0 0.0
2017-Aug-14 12:31N 40°42' W 074°02'0 0.0
2017-Aug-14 12:00N 40°42' W 074°02'0 0.0
2017-Aug-14 11:30N 40°42' W 074°02'0 0.0
2017-Aug-14 11:00N 40°42' W 074°02'0 0.0
2017-Aug-14 10:30N 40°42' W 074°02'0 0.0
2017-Aug-14 10:00N 40°42' W 074°02'0 0.0
2017-Aug-14 09:31N 40°42' W 074°02'0 0.0
2017-Aug-14 09:00N 40°42' W 074°02'0 0.0
2017-Aug-14 08:30N 40°42' W 074°02'0 0.0
2017-Aug-14 08:01N 40°42' W 074°02'0 0.0
2017-Aug-14 07:30N 40°42' W 074°02'0 0.0
2017-Aug-14 07:01N 40°42' W 074°02'0 0.0
2017-Aug-14 06:30N 40°42' W 074°02'0 0.0
2017-Aug-14 06:01N 40°42' W 074°02'0 0.0
2017-Aug-14 05:30N 40°42' W 074°02'0 0.0
2017-Aug-14 05:01N 40°42' W 074°02'0 0.0
2017-Aug-14 04:31N 40°42' W 074°02'0 0.0
2017-Aug-14 04:00N 40°42' W 074°02'0 0.0
2017-Aug-14 03:30N 40°42' W 074°02'0 0.0
2017-Aug-14 03:00N 40°42' W 074°02'0 0.0
2017-Aug-14 02:31N 40°42' W 074°02'0 0.0
2017-Aug-14 02:01N 40°42' W 074°02'0 0.0
2017-Aug-14 01:31N 40°42' W 074°02'0 0.0
2017-Aug-14 01:01N 40°42' W 074°02'0 0.0
2017-Aug-14 00:31N 40°42' W 074°02'0 0.0
2017-Aug-14 00:00N 40°42' W 074°02'0 0.0
2017-Aug-13 23:31N 40°42' W 074°02'0 0.1
2017-Aug-13 23:00N 40°42' W 074°02'0 0.9
2017-Aug-13 22:31N 40°41' W 074°02'1 1.2
2017-Aug-13 22:01N 40°41' W 074°03'0 0.4
2017-Aug-13 21:31N 40°40' W 074°03'0 0.9
2017-Aug-13 21:01N 40°40' W 074°03'1 2.6
2017-Aug-13 20:30N 40°41' W 074°02'1 2.3
2017-Aug-13 20:00N 40°42' W 074°01'3 6.7
2017-Aug-13 19:30N 40°44' W 073°58'4 7.3
2017-Aug-13 18:57N 40°47' W 073°55'2 4.8
2017-Aug-13 18:30N 40°48' W 073°52'2 3.7
2017-Aug-13 18:00N 40°48' W 073°49'3 0.1
2017-Aug-12 22:43N 40°49' W 073°46'2 3.0
2017-Aug-12 22:12N 40°50' W 073°46'2 0.9
2017-Aug-12 20:13N 40°52' W 073°45'1 2.7
2017-Aug-12 20:00N 40°52' W 073°45'  
2017-Aug-10 05:43N 41°16' W 072°29'0 0.0
2017-Aug-10 05:30N 41°16' W 072°29'0 0.0
2017-Aug-10 05:00N 41°16' W 072°29'0 0.1
2017-Aug-10 04:30N 41°16' W 072°29'0 0.0
2017-Aug-10 04:00N 41°16' W 072°29'0 0.0
2017-Aug-10 03:30N 41°16' W 072°29'0 0.0
2017-Aug-10 03:00N 41°16' W 072°29'0 0.0
2017-Aug-10 02:30N 41°16' W 072°29'0 0.0
2017-Aug-10 02:00N 41°16' W 072°29'0 0.0
2017-Aug-10 01:30N 41°16' W 072°29'0 0.0
2017-Aug-10 01:00N 41°16' W 072°29'0 0.1
2017-Aug-10 00:30N 41°16' W 072°29'1 1.7
2017-Aug-10 00:00N 41°15' W 072°30'1 1.3
2017-Aug-09 23:30N 41°15' W 072°30'2 3.2
2017-Aug-09 23:00N 41°15' W 072°28'2 4.8
2017-Aug-09 22:30N 41°15' W 072°25'5 6.4
2017-Aug-09 21:41N 41°15' W 072°18'  
Track history (hours):
 
Tides and Currents Weather Stations Pressure Air Temp Water Temp Dewpoint Dewpoint Depression Visibility Wind Speed Wind Dir Waves Ship Positions

Amistad (United States)

Ship's website: http://www.amistadvoyages.org/

Owner: AMISTAD AMERICA, New Haven, CT. More information available from US FCC via Universal Licensing System and Coast Guard Vessel Documentation Center.

Last reported at 2017-Aug-18 19:37 UTC. Time now 2017-Oct-22 19:15 UTC.
Position N 41°13' W 072°15'.
Warning: this ship's position is months out of date.

Length 39 m; draft 3.4 m.

Type: Sailing vessel. MMSI: 369547000.

Date/timePositionNaut miles runAvg speedWind from/ knotsBaromVisibWave heightAir tempDewpointWater temp
2017-Aug-18 19:37N 41°13' W 072°15'3 6.2
2017-Aug-18 19:11N 41°13' W 072°19'1 6.1
2017-Aug-18 19:00N 41°13' W 072°20'3 5.6
2017-Aug-18 18:30N 41°12' W 072°24'3 5.5
2017-Aug-18 18:00N 41°11' W 072°27'3 5.4
2017-Aug-18 17:30N 41°14' W 072°28'2 3.6
2017-Aug-18 17:00N 41°15' W 072°29'1 1.3
2017-Aug-18 16:30N 41°16' W 072°29'0 0.0
2017-Aug-18 16:00N 41°16' W 072°29'0 0.0
2017-Aug-18 15:30N 41°16' W 072°29'0 0.0
2017-Aug-18 15:00N 41°16' W 072°29'0 0.0
2017-Aug-18 14:30N 41°16' W 072°29'0 0.0
2017-Aug-18 13:30N 41°16' W 072°29'0 0.0
2017-Aug-18 13:00N 41°16' W 072°29'0 0.0
2017-Aug-18 12:30N 41°16' W 072°29'0 0.0
2017-Aug-18 12:00N 41°16' W 072°29'0 0.1
2017-Aug-18 11:30N 41°16' W 072°29'0 0.0
2017-Aug-18 11:00N 41°16' W 072°29'0 0.0
2017-Aug-18 10:30N 41°16' W 072°29'0 0.0
2017-Aug-18 10:00N 41°16' W 072°29'0 0.0
2017-Aug-18 09:30N 41°16' W 072°29'0 0.0
2017-Aug-18 09:00N 41°16' W 072°29'0 0.0
2017-Aug-18 08:30N 41°16' W 072°29'0 0.0
2017-Aug-18 08:00N 41°16' W 072°29'0 0.0
2017-Aug-18 07:30N 41°16' W 072°29'0 0.0
2017-Aug-18 07:00N 41°16' W 072°29'0 0.0
2017-Aug-18 06:30N 41°16' W 072°29'0 0.0
2017-Aug-18 06:00N 41°16' W 072°29'0 0.1
2017-Aug-18 05:30N 41°16' W 072°29'0 0.0
2017-Aug-18 05:00N 41°16' W 072°29'0 0.0
2017-Aug-18 04:30N 41°16' W 072°29'0 0.0
2017-Aug-18 04:00N 41°16' W 072°29'0 0.0
2017-Aug-18 03:30N 41°16' W 072°29'0 0.0
2017-Aug-18 03:00N 41°16' W 072°29'0 0.0
2017-Aug-18 02:30N 41°16' W 072°29'0 0.0
2017-Aug-18 02:00N 41°16' W 072°29'0 0.0
2017-Aug-18 01:30N 41°16' W 072°29'0 0.0
2017-Aug-18 01:00N 41°16' W 072°29'0 0.0
2017-Aug-18 00:30N 41°16' W 072°29'0 0.0
2017-Aug-18 00:00N 41°16' W 072°29'0 0.0
2017-Aug-17 23:30N 41°16' W 072°29'0 0.0
2017-Aug-17 23:00N 41°16' W 072°29'0 0.0
2017-Aug-17 22:30N 41°16' W 072°29'0 0.0
2017-Aug-17 22:00N 41°16' W 072°29'2 3.4
2017-Aug-17 21:30N 41°14' W 072°30'3 6.2
2017-Aug-17 21:00N 41°13' W 072°34'3 6.7
2017-Aug-17 20:30N 41°12' W 072°38'4 7.4
2017-Aug-17 19:57N 41°10' W 072°43'54 1.0
2017-Aug-15 16:40N 40°48' W 073°48'0 0.0
2017-Aug-15 16:14N 40°48' W 073°48'0 0.0
2017-Aug-15 15:45N 40°48' W 073°48'0 0.0
2017-Aug-15 15:29N 40°48' W 073°48'0 0.4
2017-Aug-15 14:56N 40°48' W 073°48'3 7.3
2017-Aug-15 14:30N 40°48' W 073°53'3 6.4
2017-Aug-15 14:01N 40°47' W 073°56'3 5.8
2017-Aug-15 13:30N 40°44' W 073°58'2 4.8
2017-Aug-15 13:01N 40°42' W 074°00'3 6.1
2017-Aug-15 12:30N 40°45' W 074°01'2 4.6
2017-Aug-15 12:00N 40°47' W 073°59'0 0.0
2017-Aug-15 11:30N 40°47' W 073°59'0 0.0
2017-Aug-15 11:01N 40°47' W 073°59'0 0.0
2017-Aug-15 10:30N 40°47' W 073°59'0 0.0
2017-Aug-15 10:00N 40°47' W 073°59'0 0.0
2017-Aug-15 09:30N 40°47' W 073°59'0 0.0
2017-Aug-15 09:00N 40°47' W 073°59'0 0.0
2017-Aug-15 08:30N 40°47' W 073°59'0 0.0
2017-Aug-15 08:00N 40°47' W 073°59'0 0.0
2017-Aug-15 07:30N 40°47' W 073°59'0 0.0
2017-Aug-15 07:00N 40°47' W 073°59'0 0.0
2017-Aug-15 06:30N 40°47' W 073°59'0 0.0
2017-Aug-15 06:00N 40°47' W 073°59'0 0.0
2017-Aug-15 05:30N 40°47' W 073°59'0 0.0
2017-Aug-15 05:00N 40°47' W 073°59'0 0.0
2017-Aug-15 04:30N 40°47' W 073°59'0 0.0
2017-Aug-15 04:00N 40°47' W 073°59'0 0.0
2017-Aug-15 03:30N 40°47' W 073°59'0 0.0
2017-Aug-15 03:00N 40°47' W 073°59'0 0.0
2017-Aug-15 02:31N 40°47' W 073°59'0 0.0
2017-Aug-15 02:00N 40°47' W 073°59'0 0.0
2017-Aug-15 01:30N 40°47' W 073°59'0 0.0
2017-Aug-15 01:01N 40°47' W 073°59'0 0.0
2017-Aug-15 00:30N 40°47' W 073°59'0 0.0
2017-Aug-15 00:00N 40°47' W 073°59'0 0.0
2017-Aug-14 23:30N 40°47' W 073°59'0 0.0
2017-Aug-14 23:00N 40°47' W 073°59'0 0.0
2017-Aug-14 22:30N 40°47' W 073°59'0 0.0
2017-Aug-14 22:00N 40°47' W 073°59'0 0.0
2017-Aug-14 21:30N 40°47' W 073°59'0 0.0
2017-Aug-14 21:00N 40°47' W 073°59'0 0.0
2017-Aug-14 20:30N 40°47' W 073°59'0 0.0
2017-Aug-14 20:00N 40°47' W 073°59'0 0.0
2017-Aug-14 19:30N 40°47' W 073°59'0 0.0
2017-Aug-14 18:59N 40°47' W 073°59'0 0.0
2017-Aug-14 18:30N 40°47' W 073°59'1 2.1
2017-Aug-14 18:00N 40°46' W 074°00'4 8.0
2017-Aug-14 17:30N 40°43' W 074°02'0 0.9
2017-Aug-14 17:00N 40°43' W 074°02'0 0.0
2017-Aug-14 16:30N 40°43' W 074°02'1 1.1
2017-Aug-14 16:01N 40°43' W 074°02'0 0.2
2017-Aug-14 15:30N 40°43' W 074°02'0 0.4
2017-Aug-14 15:01N 40°42' W 074°02'1 2.1
2017-Aug-14 14:30N 40°42' W 074°02'0 0.1
2017-Aug-14 14:01N 40°42' W 074°02'0 0.0
2017-Aug-14 13:31N 40°42' W 074°02'0 0.0
2017-Aug-14 13:01N 40°42' W 074°02'0 0.0
2017-Aug-14 12:31N 40°42' W 074°02'0 0.0
2017-Aug-14 12:00N 40°42' W 074°02'0 0.0
2017-Aug-14 11:30N 40°42' W 074°02'0 0.0
2017-Aug-14 11:00N 40°42' W 074°02'0 0.0
2017-Aug-14 10:30N 40°42' W 074°02'0 0.0
2017-Aug-14 10:00N 40°42' W 074°02'0 0.0
2017-Aug-14 09:31N 40°42' W 074°02'0 0.0
2017-Aug-14 09:00N 40°42' W 074°02'0 0.0
2017-Aug-14 08:30N 40°42' W 074°02'0 0.0
2017-Aug-14 08:01N 40°42' W 074°02'0 0.0
2017-Aug-14 07:30N 40°42' W 074°02'0 0.0
2017-Aug-14 07:01N 40°42' W 074°02'0 0.0
2017-Aug-14 06:30N 40°42' W 074°02'0 0.0
2017-Aug-14 06:01N 40°42' W 074°02'0 0.0
2017-Aug-14 05:30N 40°42' W 074°02'0 0.0
2017-Aug-14 05:01N 40°42' W 074°02'0 0.0
2017-Aug-14 04:31N 40°42' W 074°02'0 0.0
2017-Aug-14 04:00N 40°42' W 074°02'0 0.0
2017-Aug-14 03:30N 40°42' W 074°02'0 0.0
2017-Aug-14 03:00N 40°42' W 074°02'0 0.0
2017-Aug-14 02:31N 40°42' W 074°02'0 0.0
2017-Aug-14 02:01N 40°42' W 074°02'0 0.0
2017-Aug-14 01:31N 40°42' W 074°02'0 0.0
2017-Aug-14 01:01N 40°42' W 074°02'0 0.0
2017-Aug-14 00:31N 40°42' W 074°02'0 0.0
2017-Aug-14 00:00N 40°42' W 074°02'0 0.0
2017-Aug-13 23:31N 40°42' W 074°02'0 0.1
2017-Aug-13 23:00N 40°42' W 074°02'0 0.9
2017-Aug-13 22:31N 40°41' W 074°02'1 1.2
2017-Aug-13 22:01N 40°41' W 074°03'0 0.4
2017-Aug-13 21:31N 40°40' W 074°03'0 0.9
2017-Aug-13 21:01N 40°40' W 074°03'1 2.6
2017-Aug-13 20:30N 40°41' W 074°02'1 2.3
2017-Aug-13 20:00N 40°42' W 074°01'3 6.7
2017-Aug-13 19:30N 40°44' W 073°58'4 7.3
2017-Aug-13 18:57N 40°47' W 073°55'2 4.8
2017-Aug-13 18:30N 40°48' W 073°52'2 3.7
2017-Aug-13 18:00N 40°48' W 073°49'3 0.1
2017-Aug-12 22:43N 40°49' W 073°46'2 3.0
2017-Aug-12 22:12N 40°50' W 073°46'2 0.9
2017-Aug-12 20:13N 40°52' W 073°45'1 2.7
2017-Aug-12 20:00N 40°52' W 073°45'  
2017-Aug-10 05:43N 41°16' W 072°29'0 0.0
2017-Aug-10 05:30N 41°16' W 072°29'0 0.0
2017-Aug-10 05:00N 41°16' W 072°29'0 0.1
2017-Aug-10 04:30N 41°16' W 072°29'0 0.0
2017-Aug-10 04:00N 41°16' W 072°29'0 0.0
2017-Aug-10 03:30N 41°16' W 072°29'0 0.0
2017-Aug-10 03:00N 41°16' W 072°29'0 0.0
2017-Aug-10 02:30N 41°16' W 072°29'0 0.0
2017-Aug-10 02:00N 41°16' W 072°29'0 0.0
2017-Aug-10 01:30N 41°16' W 072°29'0 0.0
2017-Aug-10 01:00N 41°16' W 072°29'0 0.1
2017-Aug-10 00:30N 41°16' W 072°29'1 1.7
2017-Aug-10 00:00N 41°15' W 072°30'1 1.3
2017-Aug-09 23:30N 41°15' W 072°30'2 3.2
2017-Aug-09 23:00N 41°15' W 072°28'2 4.8
2017-Aug-09 22:30N 41°15' W 072°25'5 6.4
2017-Aug-09 21:41N 41°15' W 072°18'  

Dump ship's entire track history